createdAt,value
2019-03-17T00:00:27.766Z,74.92
2019-03-17T00:01:27.785Z,74.63
2019-03-17T00:02:28.066Z,75.01
2019-03-17T00:03:27.829Z,74.82
2019-03-17T00:04:33.789Z,74.82
2019-03-17T00:05:28.129Z,74.63
2019-03-17T00:06:28.242Z,74.82
2019-03-17T00:07:27.909Z,75.01
2019-03-17T00:08:27.967Z,75.2
2019-03-17T00:09:27.945Z,75.11
2019-03-17T00:10:28.222Z,75.01
2019-03-17T00:11:28.242Z,74.92
2019-03-17T00:12:27.999Z,74.44
2019-03-17T00:13:28.019Z,74.44
2019-03-17T00:14:28.298Z,74.44
2019-03-17T00:15:28.321Z,74.44
2019-03-17T00:16:28.345Z,74.35
2019-03-17T00:17:28.356Z,75.01
2019-03-17T00:18:28.268Z,74.25
2019-03-17T00:19:29.959Z,74.16
2019-03-17T00:20:28.412Z,74.44
2019-03-17T00:21:28.475Z,75.01
2019-03-17T00:22:28.190Z,74.82
2019-03-17T00:23:28.258Z,75.11
2019-03-17T00:24:28.233Z,74.92
2019-03-17T00:25:28.510Z,75.11
2019-03-17T00:26:28.543Z,74.82
2019-03-17T00:27:28.548Z,74.92
2019-03-17T00:28:28.306Z,74.82
2019-03-17T00:29:28.328Z,75.01
2019-03-17T00:30:28.346Z,74.63
2019-03-17T00:31:28.630Z,74.73
2019-03-17T00:32:28.647Z,75.01
2019-03-17T00:33:28.404Z,74.92
2019-03-17T00:34:28.688Z,74.82
2019-03-17T00:35:28.442Z,75.01
2019-03-17T00:36:28.725Z,74.82
2019-03-17T00:37:28.484Z,74.54
2019-03-17T00:38:28.769Z,74.63
2019-03-17T00:39:28.521Z,75.01
2019-03-17T00:40:28.539Z,74.63
2019-03-17T00:41:31.463Z,74.63
2019-03-17T00:42:28.840Z,75.01
2019-03-17T00:43:28.598Z,74.82
2019-03-17T00:44:28.618Z,75.01
2019-03-17T00:45:28.637Z,74.92
2019-03-17T00:46:28.970Z,74.82
2019-03-17T00:47:28.939Z,74.82
2019-03-17T00:48:28.694Z,75.11
2019-03-17T00:49:28.712Z,74.92
2019-03-17T00:50:28.997Z,74.82
2019-03-17T00:51:28.750Z,75.01
2019-03-17T00:52:29.035Z,74.73
2019-03-17T00:53:28.793Z,74.82
2019-03-17T00:54:28.815Z,74.44
2019-03-17T00:55:28.835Z,74.82
2019-03-17T00:56:28.849Z,74.82
2019-03-17T00:57:29.130Z,74.82
2019-03-17T00:58:29.154Z,75.11
2019-03-17T00:59:28.916Z,75.01
2019-03-17T01:00:29.253Z,74.92
2019-03-17T01:01:28.944Z,75.01
2019-03-17T01:02:28.965Z,75.01
2019-03-17T01:03:28.985Z,74.82
2019-03-17T01:04:29.266Z,74.82
2019-03-17T01:05:31.222Z,74.92
2019-03-17T01:06:29.044Z,74.82
2019-03-17T01:07:29.061Z,74.63
2019-03-17T01:08:29.344Z,74.92
2019-03-17T01:09:29.103Z,74.82
2019-03-17T01:10:29.122Z,74.82
2019-03-17T01:11:29.153Z,74.73
2019-03-17T01:12:29.426Z,75.01
2019-03-17T01:13:29.442Z,74.82
2019-03-17T01:14:29.202Z,74.82
2019-03-17T01:15:29.481Z,75.2
2019-03-17T01:16:29.241Z,74.82
2019-03-17T01:17:29.523Z,74.82
2019-03-17T01:18:29.544Z,74.63
2019-03-17T01:19:29.297Z,74.73
2019-03-17T01:20:29.314Z,74.73
2019-03-17T01:21:29.674Z,74.82
2019-03-17T01:22:29.617Z,74.73
2019-03-17T01:23:29.636Z,74.73
2019-03-17T01:24:29.667Z,74.82
2019-03-17T01:25:29.411Z,75.01
2019-03-17T01:26:29.429Z,74.73
2019-03-17T01:27:29.548Z,74.73
2019-03-17T01:28:29.733Z,74.82
2019-03-17T01:29:29.753Z,75.01
2019-03-17T01:30:29.827Z,74.73
2019-03-17T01:31:29.528Z,74.63
2019-03-17T01:32:29.546Z,74.63
2019-03-17T01:33:29.567Z,75.01
2019-03-17T01:34:29.582Z,74.82
2019-03-17T01:35:32.472Z,74.73
2019-03-17T01:36:29.895Z,74.82
2019-03-17T01:37:29.644Z,74.82
2019-03-17T01:38:29.660Z,74.54
2019-03-17T01:39:29.681Z,74.54
2019-03-17T01:40:29.704Z,74.73
2019-03-17T01:41:29.719Z,74.63
2019-03-17T01:42:29.740Z,74.82
2019-03-17T01:43:30.023Z,74.82
2019-03-17T01:44:30.040Z,74.63
2019-03-17T01:45:30.058Z,75.01
2019-03-17T01:46:29.816Z,74.63
2019-03-17T01:47:30.122Z,74.63
2019-03-17T01:48:29.859Z,75.11
2019-03-17T01:49:29.876Z,74.63
2019-03-17T01:50:30.227Z,74.63
2019-03-17T01:51:30.176Z,74.82
2019-03-17T01:52:30.194Z,75.01
2019-03-17T01:53:29.954Z,74.63
2019-03-17T01:54:29.972Z,74.82
2019-03-17T01:55:29.991Z,74.82
2019-03-17T01:56:30.010Z,74.82
2019-03-17T01:57:30.299Z,74.63
2019-03-17T01:58:30.050Z,74.82
2019-03-17T01:59:30.530Z,74.63
2019-03-17T02:00:30.087Z,74.82
2019-03-17T02:01:30.369Z,74.92
2019-03-17T02:02:30.445Z,74.82
2019-03-17T02:03:30.146Z,74.54
2019-03-17T02:04:30.163Z,74.63
2019-03-17T02:05:30.185Z,75.11
2019-03-17T02:06:30.204Z,75.11
2019-03-17T02:07:30.223Z,74.63
2019-03-17T02:08:30.507Z,74.63
2019-03-17T02:09:30.310Z,75.01
2019-03-17T02:10:30.544Z,74.82
2019-03-17T02:11:30.298Z,74.82
2019-03-17T02:12:30.320Z,75.01
2019-03-17T02:13:30.651Z,75.01
2019-03-17T02:14:30.407Z,74.82
2019-03-17T02:15:30.434Z,74.63
2019-03-17T02:16:30.658Z,74.82
2019-03-17T02:17:30.680Z,75.01
2019-03-17T02:18:30.699Z,74.73
2019-03-17T02:19:30.455Z,75.01
2019-03-17T02:20:30.735Z,75.2
2019-03-17T02:21:30.502Z,74.82
2019-03-17T02:22:30.785Z,74.82
2019-03-17T02:23:30.801Z,75.11
2019-03-17T02:24:30.552Z,74.82
2019-03-17T02:25:30.572Z,74.82
2019-03-17T02:26:30.589Z,75.01
2019-03-17T02:27:30.612Z,75.2
2019-03-17T02:28:30.634Z,74.63
2019-03-17T02:29:30.909Z,74.63
2019-03-17T02:30:30.955Z,74.63
2019-03-17T02:31:30.688Z,74.73
2019-03-17T02:32:30.707Z,74.82
2019-03-17T02:33:30.726Z,74.73
2019-03-17T02:34:31.009Z,74.82
2019-03-17T02:35:41.507Z,74.82
2019-03-17T02:36:31.047Z,74.82
2019-03-17T02:37:31.135Z,74.73
2019-03-17T02:38:30.825Z,75.01
2019-03-17T02:39:30.840Z,74.63
2019-03-17T02:40:31.134Z,74.63
2019-03-17T02:41:31.143Z,74.63
2019-03-17T02:42:31.165Z,74.63
2019-03-17T02:43:31.199Z,74.63
2019-03-17T02:44:30.944Z,74.63
2019-03-17T02:45:30.960Z,74.82
2019-03-17T02:46:30.993Z,75.11
2019-03-17T02:47:30.996Z,75.11
2019-03-17T02:48:31.280Z,74.63
2019-03-17T02:49:31.299Z,74.63
2019-03-17T02:50:31.320Z,74.63
2019-03-17T02:51:31.120Z,74.82
2019-03-17T02:52:31.104Z,74.92
2019-03-17T02:53:31.118Z,74.73
2019-03-17T02:54:31.132Z,74.63
2019-03-17T02:55:31.424Z,74.63
2019-03-17T02:56:31.437Z,75.11
2019-03-17T02:57:31.463Z,74.73
2019-03-17T02:58:31.486Z,75.01
2019-03-17T02:59:31.275Z,75.11
2019-03-17T03:00:31.249Z,74.63
2019-03-17T03:01:31.272Z,74.63
2019-03-17T03:02:31.346Z,74.82
2019-03-17T03:03:31.637Z,74.82
2019-03-17T03:04:31.694Z,75.11
2019-03-17T03:05:31.400Z,75.01
2019-03-17T03:06:31.679Z,74.82
2019-03-17T03:07:31.695Z,74.82
2019-03-17T03:08:31.517Z,74.82
2019-03-17T03:09:31.432Z,74.82
2019-03-17T03:10:34.531Z,74.82
2019-03-17T03:11:31.741Z,74.82
2019-03-17T03:12:31.483Z,74.63
2019-03-17T03:13:31.503Z,74.63
2019-03-17T03:14:31.798Z,74.82
2019-03-17T03:15:31.802Z,75.01
2019-03-17T03:16:31.825Z,74.82
2019-03-17T03:17:31.903Z,74.82
2019-03-17T03:18:31.604Z,74.73
2019-03-17T03:19:31.623Z,74.63
2019-03-17T03:20:31.898Z,74.82
2019-03-17T03:21:31.666Z,74.63
2019-03-17T03:22:31.946Z,74.63
2019-03-17T03:23:31.724Z,74.63
2019-03-17T03:24:31.975Z,75.01
2019-03-17T03:25:31.735Z,74.73
2019-03-17T03:26:31.752Z,74.54
2019-03-17T03:27:31.775Z,75.01
2019-03-17T03:28:32.056Z,74.82
2019-03-17T03:29:31.818Z,74.63
2019-03-17T03:30:31.835Z,74.63
2019-03-17T03:31:31.861Z,75.01
2019-03-17T03:32:32.466Z,74.63
2019-03-17T03:33:31.987Z,75.11
2019-03-17T03:34:32.214Z,75.11
2019-03-17T03:35:32.202Z,74.63
2019-03-17T03:36:31.949Z,74.63
2019-03-17T03:37:31.970Z,74.63
2019-03-17T03:38:32.264Z,74.63
2019-03-17T03:39:32.003Z,74.63
2019-03-17T03:40:32.026Z,74.73
2019-03-17T03:41:32.427Z,75.01
2019-03-17T03:42:32.070Z,74.82
2019-03-17T03:43:32.087Z,74.82
2019-03-17T03:44:32.370Z,74.63
2019-03-17T03:45:32.142Z,74.73
2019-03-17T03:46:32.143Z,74.63
2019-03-17T03:47:32.424Z,74.73
2019-03-17T03:48:32.449Z,74.73
2019-03-17T03:49:32.199Z,74.73
2019-03-17T03:50:32.493Z,74.63
2019-03-17T03:51:32.247Z,74.73
2019-03-17T03:52:32.263Z,75.01
2019-03-17T03:53:32.551Z,74.73
2019-03-17T03:54:32.560Z,75.11
2019-03-17T03:55:32.327Z,74.92
2019-03-17T03:56:32.611Z,74.73
2019-03-17T03:57:32.620Z,74.82
2019-03-17T03:58:32.375Z,75.01
2019-03-17T03:59:32.399Z,74.82
2019-03-17T04:00:32.417Z,75.01
2019-03-17T04:01:32.435Z,75.01
2019-03-17T04:02:32.726Z,74.63
2019-03-17T04:03:32.739Z,75.01
2019-03-17T04:04:32.492Z,74.63
2019-03-17T04:05:35.255Z,74.82
2019-03-17T04:06:32.531Z,74.73
2019-03-17T04:07:32.562Z,74.63
2019-03-17T04:08:32.837Z,74.82
2019-03-17T04:09:32.594Z,74.82
2019-03-17T04:10:32.911Z,74.82
2019-03-17T04:11:32.897Z,74.82
2019-03-17T04:12:32.649Z,74.82
2019-03-17T04:13:32.672Z,74.63
2019-03-17T04:14:32.703Z,74.73
2019-03-17T04:15:32.727Z,74.82
2019-03-17T04:16:32.993Z,74.44
2019-03-17T04:17:32.747Z,74.73
2019-03-17T04:18:32.775Z,74.82
2019-03-17T04:19:33.049Z,74.82
2019-03-17T04:20:33.081Z,74.82
2019-03-17T04:21:32.851Z,74.82
2019-03-17T04:22:32.845Z,74.73
2019-03-17T04:23:32.868Z,75.01
2019-03-17T04:24:32.887Z,74.73
2019-03-17T04:25:33.334Z,75.01
2019-03-17T04:26:32.925Z,75.01
2019-03-17T04:27:32.962Z,75.01
2019-03-17T04:28:32.960Z,74.82
2019-03-17T04:29:33.245Z,75.01
2019-03-17T04:30:33.011Z,74.92
2019-03-17T04:31:33.292Z,74.82
2019-03-17T04:32:33.307Z,74.63
2019-03-17T04:33:33.060Z,75.01
2019-03-17T04:34:33.079Z,74.82
2019-03-17T04:35:33.367Z,75.01
2019-03-17T04:36:42.778Z,74.73
2019-03-17T04:37:33.153Z,74.82
2019-03-17T04:38:33.430Z,74.63
2019-03-17T04:39:33.439Z,74.82
2019-03-17T04:40:33.196Z,74.73
2019-03-17T04:41:33.479Z,74.82
2019-03-17T04:42:33.235Z,74.73
2019-03-17T04:43:33.516Z,75.01
2019-03-17T04:44:33.276Z,74.73
2019-03-17T04:45:33.555Z,74.63
2019-03-17T04:46:33.571Z,74.73
2019-03-17T04:47:33.329Z,74.73
2019-03-17T04:48:33.350Z,74.82
2019-03-17T04:49:33.635Z,74.82
2019-03-17T04:50:33.657Z,74.82
2019-03-17T04:51:33.413Z,74.82
2019-03-17T04:52:33.430Z,74.82
2019-03-17T04:53:33.709Z,75.11
2019-03-17T04:54:33.464Z,75.01
2019-03-17T04:55:33.500Z,74.63
2019-03-17T04:56:33.506Z,74.82
2019-03-17T04:57:33.788Z,74.73
2019-03-17T04:58:33.544Z,75.01
2019-03-17T04:59:33.824Z,74.73
2019-03-17T05:00:33.846Z,74.82
2019-03-17T05:01:33.605Z,74.73
2019-03-17T05:02:33.622Z,74.63
2019-03-17T05:03:33.907Z,74.73
2019-03-17T05:04:33.660Z,74.73
2019-03-17T05:05:33.732Z,74.82
2019-03-17T05:06:33.725Z,74.73
2019-03-17T05:07:33.986Z,75.01
2019-03-17T05:08:33.735Z,74.82
2019-03-17T05:09:33.765Z,74.82
2019-03-17T05:10:34.041Z,74.73
2019-03-17T05:11:34.064Z,74.82
2019-03-17T05:12:33.843Z,74.73
2019-03-17T05:13:33.836Z,75.01
2019-03-17T05:14:34.123Z,75.11
2019-03-17T05:15:33.881Z,74.82
2019-03-17T05:16:35.760Z,74.82
2019-03-17T05:17:34.179Z,74.63
2019-03-17T05:18:34.199Z,74.73
2019-03-17T05:19:33.955Z,74.82
2019-03-17T05:20:34.007Z,74.63
2019-03-17T05:21:34.257Z,74.63
2019-03-17T05:22:34.012Z,74.73
2019-03-17T05:23:34.036Z,74.82
2019-03-17T05:24:34.316Z,74.82
2019-03-17T05:25:34.070Z,74.63
2019-03-17T05:26:34.092Z,74.63
2019-03-17T05:27:34.371Z,75.01
2019-03-17T05:28:34.131Z,74.82
2019-03-17T05:29:34.413Z,74.63
2019-03-17T05:30:34.168Z,74.73
2019-03-17T05:31:34.188Z,74.82
2019-03-17T05:32:34.469Z,74.82
2019-03-17T05:33:34.229Z,74.63
2019-03-17T05:34:34.512Z,74.63
2019-03-17T05:35:34.529Z,74.63
2019-03-17T05:36:34.288Z,75.01
2019-03-17T05:37:34.569Z,75.11
2019-03-17T05:38:34.587Z,74.82
2019-03-17T05:39:34.608Z,74.73
2019-03-17T05:40:34.637Z,74.63
2019-03-17T05:41:34.405Z,74.82
2019-03-17T05:42:34.404Z,74.63
2019-03-17T05:43:34.423Z,74.82
2019-03-17T05:44:34.443Z,74.63
2019-03-17T05:45:34.462Z,75.11
2019-03-17T05:46:34.481Z,75.11
2019-03-17T05:47:34.773Z,74.73
2019-03-17T05:48:34.786Z,74.73
2019-03-17T05:49:34.540Z,75.01
2019-03-17T05:50:34.826Z,74.82
2019-03-17T05:51:34.841Z,75.01
2019-03-17T05:52:34.608Z,75.01
2019-03-17T05:53:34.616Z,75.01
2019-03-17T05:54:34.900Z,75.01
2019-03-17T05:55:34.667Z,74.82
2019-03-17T05:56:34.945Z,74.82
2019-03-17T05:57:34.965Z,74.63
2019-03-17T05:58:34.715Z,74.82
2019-03-17T05:59:34.733Z,74.92
2019-03-17T06:00:35.016Z,74.82
2019-03-17T06:01:34.775Z,74.82
2019-03-17T06:02:34.858Z,74.82
2019-03-17T06:03:35.076Z,74.44
2019-03-17T06:04:34.832Z,74.35
2019-03-17T06:05:34.852Z,74.25
2019-03-17T06:06:35.137Z,74.44
2019-03-17T06:07:34.888Z,74.44
2019-03-17T06:08:36.013Z,74.16
2019-03-17T06:09:35.195Z,74.25
2019-03-17T06:10:35.213Z,74.25
2019-03-17T06:11:34.968Z,74.25
2019-03-17T06:12:35.251Z,74.54
2019-03-17T06:13:35.270Z,74.25
2019-03-17T06:14:35.029Z,74.25
2019-03-17T06:15:35.050Z,74.54
2019-03-17T06:16:35.332Z,74.35
2019-03-17T06:17:35.347Z,74.44
2019-03-17T06:18:35.103Z,74.35
2019-03-17T06:19:35.125Z,74.35
2019-03-17T06:20:35.160Z,74.44
2019-03-17T06:21:35.160Z,75.11
2019-03-17T06:22:35.445Z,75.01
2019-03-17T06:23:35.200Z,74.25
2019-03-17T06:24:35.226Z,74.44
2019-03-17T06:25:35.243Z,74.54
2019-03-17T06:26:35.526Z,74.25
2019-03-17T06:27:35.303Z,74.82
2019-03-17T06:28:35.301Z,74.82
2019-03-17T06:29:35.584Z,74.25
2019-03-17T06:30:35.337Z,74.44
2019-03-17T06:31:35.621Z,74.35
2019-03-17T06:32:35.641Z,74.44
2019-03-17T06:33:35.409Z,74.25
2019-03-17T06:34:35.416Z,74.44
2019-03-17T06:35:35.703Z,74.44
2019-03-17T06:36:35.719Z,74.44
2019-03-17T06:37:35.478Z,74.44
2019-03-17T06:38:35.495Z,74.16
2019-03-17T06:39:35.785Z,74.44
2019-03-17T06:40:35.531Z,74.16
2019-03-17T06:41:35.555Z,74.44
2019-03-17T06:42:35.837Z,74.16
2019-03-17T06:43:35.589Z,74.16
2019-03-17T06:44:35.613Z,74.25
2019-03-17T06:45:35.897Z,74.16
2019-03-17T06:46:35.911Z,74.25
2019-03-17T06:47:35.670Z,74.16
2019-03-17T06:48:35.689Z,74.06
2019-03-17T06:49:35.971Z,74.16
2019-03-17T06:50:35.994Z,74.16
2019-03-17T06:51:35.746Z,74.44
2019-03-17T06:52:36.039Z,74.25
2019-03-17T06:53:36.057Z,74.06
2019-03-17T06:54:35.806Z,74.35
2019-03-17T06:55:36.091Z,74.54
2019-03-17T06:56:36.107Z,74.25
2019-03-17T06:57:35.869Z,74.25
2019-03-17T06:58:36.148Z,74.54
2019-03-17T06:59:36.168Z,74.25
2019-03-17T07:00:35.924Z,74.06
2019-03-17T07:01:35.943Z,74.25
2019-03-17T07:02:36.243Z,74.25
2019-03-17T07:03:36.244Z,74.25
2019-03-17T07:04:36.004Z,74.35
2019-03-17T07:05:36.285Z,74.35
2019-03-17T07:06:36.300Z,74.25
2019-03-17T07:07:46.453Z,74.16
2019-03-17T07:08:36.121Z,74.25
2019-03-17T07:09:36.362Z,74.16
2019-03-17T07:10:36.399Z,74.25
2019-03-17T07:11:36.178Z,74.35
2019-03-17T07:12:36.157Z,74.25
2019-03-17T07:13:36.443Z,74.25
2019-03-17T07:14:36.202Z,74.16
2019-03-17T07:15:36.228Z,74.16
2019-03-17T07:16:36.497Z,74.16
2019-03-17T07:17:36.549Z,74.16
2019-03-17T07:18:36.280Z,74.25
2019-03-17T07:19:36.559Z,74.06
2019-03-17T07:20:36.591Z,74.25
2019-03-17T07:21:36.334Z,74.25
2019-03-17T07:22:36.352Z,74.25
2019-03-17T07:23:36.698Z,74.35
2019-03-17T07:24:36.652Z,74.25
2019-03-17T07:25:36.670Z,74.25
2019-03-17T07:26:36.434Z,74.54
2019-03-17T07:27:36.448Z,74.25
2019-03-17T07:28:36.730Z,74.54
2019-03-17T07:29:36.750Z,74.06
2019-03-17T07:30:36.506Z,74.16
2019-03-17T07:31:36.525Z,74.25
2019-03-17T07:32:36.547Z,74.25
2019-03-17T07:33:36.829Z,74.06
2019-03-17T07:34:36.585Z,74.16
2019-03-17T07:35:36.601Z,74.25
2019-03-17T07:36:36.623Z,74.06
2019-03-17T07:37:36.906Z,74.25
2019-03-17T07:38:36.662Z,74.16
2019-03-17T07:39:36.683Z,74.06
2019-03-17T07:40:36.965Z,74.25
2019-03-17T07:41:36.986Z,74.35
2019-03-17T07:42:37.006Z,74.25
2019-03-17T07:43:36.761Z,74.63
2019-03-17T07:44:37.052Z,74.16
2019-03-17T07:45:37.064Z,74.06
2019-03-17T07:46:36.814Z,74.25
2019-03-17T07:47:37.993Z,74.25
2019-03-17T07:48:37.121Z,74.06
2019-03-17T07:49:36.876Z,74.35
2019-03-17T07:50:36.896Z,74.25
2019-03-17T07:51:37.179Z,74.06
2019-03-17T07:52:37.195Z,74.35
2019-03-17T07:53:36.954Z,74.35
2019-03-17T07:54:37.416Z,74.35
2019-03-17T07:55:37.255Z,74.44
2019-03-17T07:56:37.013Z,74.44
2019-03-17T07:57:37.039Z,74.35
2019-03-17T07:58:37.052Z,74.44
2019-03-17T07:59:37.334Z,74.54
2019-03-17T08:00:37.365Z,74.44
2019-03-17T08:01:37.123Z,74.54
2019-03-17T08:02:37.136Z,74.25
2019-03-17T08:03:37.414Z,74.44
2019-03-17T08:04:46.173Z,74.25
2019-03-17T08:05:37.190Z,74.54
2019-03-17T08:06:37.470Z,75.01
2019-03-17T08:07:37.227Z,74.25
2019-03-17T08:08:37.405Z,74.35
2019-03-17T08:09:37.531Z,75.01
2019-03-17T08:10:37.291Z,74.54
2019-03-17T08:11:37.622Z,74.25
2019-03-17T08:12:37.323Z,75.01
2019-03-17T08:13:37.345Z,75.11
2019-03-17T08:14:37.624Z,74.25
2019-03-17T08:15:37.383Z,74.16
2019-03-17T08:16:37.664Z,74.16
2019-03-17T08:17:37.423Z,75.01
2019-03-17T08:18:37.709Z,74.25
2019-03-17T08:19:37.461Z,75.01
2019-03-17T08:20:37.482Z,74.25
2019-03-17T08:21:37.502Z,74.25
2019-03-17T08:22:37.522Z,74.25
2019-03-17T08:23:37.803Z,74.25
2019-03-17T08:24:37.560Z,74.44
2019-03-17T08:25:37.841Z,74.35
2019-03-17T08:26:37.858Z,75.11
2019-03-17T08:27:37.880Z,74.44
2019-03-17T08:28:37.639Z,74.44
2019-03-17T08:29:37.923Z,74.25
2019-03-17T08:30:37.941Z,75.11
2019-03-17T08:31:37.960Z,74.25
2019-03-17T08:32:37.720Z,74.92
2019-03-17T08:33:37.999Z,74.82
2019-03-17T08:34:37.756Z,75.01
2019-03-17T08:35:38.041Z,74.92
2019-03-17T08:36:37.803Z,74.82
2019-03-17T08:37:37.820Z,74.82
2019-03-17T08:38:38.100Z,74.92
2019-03-17T08:39:38.119Z,74.92
2019-03-17T08:40:38.141Z,74.82
2019-03-17T08:41:39.851Z,74.92
2019-03-17T08:42:37.921Z,75.01
2019-03-17T08:43:38.196Z,74.82
2019-03-17T08:44:37.950Z,74.82
2019-03-17T08:45:38.284Z,74.63
2019-03-17T08:46:37.994Z,74.82
2019-03-17T08:47:38.014Z,74.82
2019-03-17T08:48:38.296Z,74.63
2019-03-17T08:49:38.055Z,74.63
2019-03-17T08:50:38.337Z,74.73
2019-03-17T08:51:38.273Z,74.63
2019-03-17T08:52:38.116Z,74.82
2019-03-17T08:53:38.136Z,74.92
2019-03-17T08:54:38.154Z,74.73
2019-03-17T08:55:38.171Z,75.01
2019-03-17T08:56:38.474Z,74.82
2019-03-17T08:57:38.222Z,74.63
2019-03-17T08:58:38.494Z,74.82
2019-03-17T08:59:38.254Z,75.11
2019-03-17T09:00:38.533Z,75.01
2019-03-17T09:01:38.290Z,75.2
2019-03-17T09:02:38.570Z,74.63
2019-03-17T09:03:38.329Z,75.11
2019-03-17T09:04:38.612Z,74.63
2019-03-17T09:05:38.369Z,74.82
2019-03-17T09:06:38.652Z,74.82
2019-03-17T09:07:38.423Z,74.92
2019-03-17T09:08:38.689Z,74.82
2019-03-17T09:09:38.452Z,74.82
2019-03-17T09:10:38.728Z,74.82
2019-03-17T09:11:38.488Z,74.73
2019-03-17T09:12:38.769Z,74.82
2019-03-17T09:13:38.800Z,74.92
2019-03-17T09:14:38.806Z,74.82
2019-03-17T09:15:38.566Z,74.82
2019-03-17T09:16:38.846Z,74.63
2019-03-17T09:17:38.605Z,74.63
2019-03-17T09:18:38.622Z,75.11
2019-03-17T09:19:38.654Z,75.01
2019-03-17T09:20:38.665Z,74.82
2019-03-17T09:21:38.945Z,74.44
2019-03-17T09:22:38.701Z,74.44
2019-03-17T09:23:38.984Z,74.29
2019-03-17T09:24:38.743Z,74.25
2019-03-17T09:25:39.027Z,74.06
2019-03-17T09:26:38.784Z,74.25
2019-03-17T09:27:39.065Z,74.25
2019-03-17T09:28:38.819Z,74.38
2019-03-17T09:29:38.843Z,74.48
2019-03-17T09:30:39.121Z,74.44
2019-03-17T09:31:38.878Z,74.38
2019-03-17T09:32:38.899Z,74.01
2019-03-17T09:33:38.917Z,74.67
2019-03-17T09:34:39.198Z,74.1
2019-03-17T09:35:38.957Z,74.1
2019-03-17T09:36:38.974Z,74.1
2019-03-17T09:37:38.996Z,74.29
2019-03-17T09:38:49.104Z,74.29
2019-03-17T09:39:39.038Z,74.38
2019-03-17T09:40:39.318Z,74.29
2019-03-17T09:41:39.075Z,73.91
2019-03-17T09:42:39.358Z,74.01
2019-03-17T09:43:39.116Z,73.81
2019-03-17T09:44:39.135Z,74.19
2019-03-17T09:45:39.236Z,73.81
2019-03-17T09:46:39.174Z,73.81
2019-03-17T09:47:41.083Z,74.1
2019-03-17T09:48:39.474Z,74.01
2019-03-17T09:49:39.499Z,73.91
2019-03-17T09:50:39.251Z,73.91
2019-03-17T09:51:39.539Z,73.91
2019-03-17T09:52:39.292Z,73.91
2019-03-17T09:53:39.575Z,74.01
2019-03-17T09:54:39.333Z,73.81
2019-03-17T09:55:39.351Z,74.1
2019-03-17T09:56:39.632Z,74.01
2019-03-17T09:57:39.391Z,74.19
2019-03-17T09:58:39.671Z,73.81
2019-03-17T09:59:39.431Z,74.29
2019-03-17T10:00:39.713Z,73.72
2019-03-17T10:01:39.470Z,74.1
2019-03-17T10:02:39.754Z,74.19
2019-03-17T10:03:39.511Z,74.1
2019-03-17T10:04:39.525Z,74.01
2019-03-17T10:05:39.810Z,73.91
2019-03-17T10:06:39.830Z,74.1
2019-03-17T10:07:39.857Z,73.52
2019-03-17T10:08:39.608Z,73.91
2019-03-17T10:09:39.625Z,74.01
2019-03-17T10:10:39.910Z,74.1
2019-03-17T10:11:39.931Z,74.01
2019-03-17T10:12:39.686Z,73.52
2019-03-17T10:13:39.974Z,73.52
2019-03-17T10:14:39.728Z,73.62
2019-03-17T10:15:40.012Z,74.01
2019-03-17T10:16:39.771Z,73.43
2019-03-17T10:17:39.789Z,73.43
2019-03-17T10:18:40.068Z,73.62
2019-03-17T10:19:39.827Z,73.81
2019-03-17T10:20:40.111Z,74.01
2019-03-17T10:21:39.866Z,73.52
2019-03-17T10:22:42.140Z,73.43
2019-03-17T10:23:39.908Z,73.62
2019-03-17T10:24:39.925Z,73.43
2019-03-17T10:25:40.208Z,73.52
2019-03-17T10:26:39.963Z,73.52
2019-03-17T10:27:39.984Z,73.43
2019-03-17T10:28:40.266Z,73.14
2019-03-17T10:29:40.286Z,73.43
2019-03-17T10:30:40.042Z,73.52
2019-03-17T10:31:40.064Z,73.43
2019-03-17T10:32:40.086Z,73.52
2019-03-17T10:33:40.104Z,73.43
2019-03-17T10:34:40.124Z,73.33
2019-03-17T10:35:40.405Z,73.43
2019-03-17T10:36:40.425Z,73.43
2019-03-17T10:37:40.444Z,73.43
2019-03-17T10:38:40.203Z,73.52
2019-03-17T10:39:40.224Z,73.43
2019-03-17T10:40:40.505Z,73.05
2019-03-17T10:41:40.528Z,72.96
2019-03-17T10:42:40.559Z,73.05
2019-03-17T10:43:40.567Z,73.05
2019-03-17T10:44:40.321Z,72.96
2019-03-17T10:45:40.604Z,72.96
2019-03-17T10:46:40.362Z,73.24
2019-03-17T10:47:40.385Z,72.86
2019-03-17T10:48:40.407Z,73.14
2019-03-17T10:49:40.692Z,73.05
2019-03-17T10:50:51.909Z,73.05
2019-03-17T10:51:40.480Z,73.33
2019-03-17T10:52:40.482Z,73.05
2019-03-17T10:53:40.765Z,73.24
2019-03-17T10:54:40.787Z,73.33
2019-03-17T10:55:40.551Z,73.52
2019-03-17T10:56:40.826Z,73.33
2019-03-17T10:57:40.847Z,73.43
2019-03-17T10:58:40.869Z,73.43
2019-03-17T10:59:40.887Z,73.43
2019-03-17T11:00:40.908Z,73.52
2019-03-17T11:01:40.931Z,73.24
2019-03-17T11:02:40.948Z,72.96
2019-03-17T11:03:40.969Z,73.24
2019-03-17T11:04:40.833Z,73.43
2019-03-17T11:05:41.008Z,73.33
2019-03-17T11:06:40.769Z,73.24
2019-03-17T11:07:40.787Z,73.24
2019-03-17T11:08:40.804Z,72.86
2019-03-17T11:09:40.826Z,72.96
2019-03-17T11:10:40.848Z,73.33
2019-03-17T11:11:41.134Z,73.24
2019-03-17T11:12:40.891Z,73.43
2019-03-17T11:13:40.917Z,73.05
2019-03-17T11:14:41.195Z,73.43
2019-03-17T11:15:40.951Z,73.37
2019-03-17T11:16:41.236Z,72.86
2019-03-17T11:17:41.249Z,72.96
2019-03-17T11:18:41.269Z,72.86
2019-03-17T11:19:41.291Z,72.96
2019-03-17T11:20:41.312Z,72.96
2019-03-17T11:21:41.067Z,73.05
2019-03-17T11:22:41.089Z,73.33
2019-03-17T11:23:41.109Z,73.52
2019-03-17T11:24:41.130Z,73.33
2019-03-17T11:25:41.147Z,73.52
2019-03-17T11:26:41.451Z,73.24
2019-03-17T11:27:41.280Z,73.62
2019-03-17T11:28:41.213Z,73.43
2019-03-17T11:29:41.230Z,73.24
2019-03-17T11:30:41.251Z,73.43
2019-03-17T11:31:41.276Z,73.52
2019-03-17T11:32:41.554Z,73.37
2019-03-17T11:33:41.312Z,73.47
2019-03-17T11:34:41.591Z,73.33
2019-03-17T11:35:41.612Z,73.24
2019-03-17T11:36:41.369Z,73.52
2019-03-17T11:37:41.656Z,73.24
2019-03-17T11:38:41.674Z,73.43
2019-03-17T11:39:41.694Z,73.24
2019-03-17T11:40:41.712Z,73.05
2019-03-17T11:41:41.737Z,73.28
2019-03-17T11:42:41.565Z,73.28
2019-03-17T11:43:41.794Z,73.28
2019-03-17T11:44:41.794Z,72.99
2019-03-17T11:45:41.814Z,72.8
2019-03-17T11:46:41.837Z,72.71
2019-03-17T11:47:41.881Z,73.08
2019-03-17T11:48:41.934Z,72.8
2019-03-17T11:49:41.636Z,72.89
2019-03-17T11:50:41.922Z,73.08
2019-03-17T11:51:41.669Z,73.08
2019-03-17T11:52:41.692Z,72.61
2019-03-17T11:53:41.976Z,72.8
2019-03-17T11:54:41.732Z,72.61
2019-03-17T11:55:41.757Z,72.61
2019-03-17T11:56:42.037Z,72.8
2019-03-17T11:57:42.070Z,72.61
2019-03-17T11:58:42.100Z,72.76
2019-03-17T11:59:42.096Z,73.05
2019-03-17T12:00:42.118Z,72.86
2019-03-17T12:01:42.139Z,73.56
2019-03-17T12:02:41.896Z,73.33
2019-03-17T12:03:41.914Z,73.72
2019-03-17T12:04:41.935Z,73.05
2019-03-17T12:05:41.952Z,73.52
2019-03-17T12:06:41.975Z,73.43
2019-03-17T12:07:42.262Z,73.43
2019-03-17T12:08:42.293Z,74.01
2019-03-17T12:09:52.450Z,74.19
2019-03-17T12:10:42.055Z,74.01
2019-03-17T12:11:42.078Z,73.91
2019-03-17T12:12:42.092Z,74.01
2019-03-17T12:13:42.380Z,74.29
2019-03-17T12:14:42.400Z,74.38
2019-03-17T12:15:42.155Z,74.38
2019-03-17T12:16:42.178Z,74.19
2019-03-17T12:17:42.195Z,74.1
2019-03-17T12:18:42.220Z,74.19
2019-03-17T12:19:42.500Z,74.38
2019-03-17T12:20:42.523Z,74.1
2019-03-17T12:21:42.538Z,74.38
2019-03-17T12:22:42.558Z,74.19
2019-03-17T12:23:42.318Z,74.19
2019-03-17T12:24:42.597Z,74.19
2019-03-17T12:25:42.362Z,74.1
2019-03-17T12:26:42.637Z,74.48
2019-03-17T12:27:42.655Z,74.1
2019-03-17T12:28:42.677Z,73.62
2019-03-17T12:29:42.436Z,74.38
2019-03-17T12:30:42.714Z,74.48
2019-03-17T12:31:42.473Z,74.19
2019-03-17T12:32:42.494Z,74.67
2019-03-17T12:33:42.775Z,74.1
2019-03-17T12:34:42.533Z,74.19
2019-03-17T12:35:42.817Z,74.19
2019-03-17T12:36:42.834Z,74.19
2019-03-17T12:37:42.856Z,74.01
2019-03-17T12:38:42.878Z,73.91
2019-03-17T12:39:42.894Z,74.01
2019-03-17T12:40:42.920Z,74.01
2019-03-17T12:41:42.675Z,74.01
2019-03-17T12:42:42.691Z,74.1
2019-03-17T12:43:42.980Z,73.72
2019-03-17T12:44:42.731Z,74.01
2019-03-17T12:45:42.751Z,73.81
2019-03-17T12:46:43.039Z,74.01
2019-03-17T12:47:42.799Z,73.52
2019-03-17T12:48:42.821Z,73.52
2019-03-17T12:49:43.091Z,73.43
2019-03-17T12:50:43.112Z,73.43
2019-03-17T12:51:42.871Z,73.24
2019-03-17T12:52:43.151Z,73.05
2019-03-17T12:53:43.177Z,73.24